createdAt,value
2019-01-13T00:00:21.313Z,53.64
2019-01-13T00:01:29.377Z,52.98
2019-01-13T00:02:37.456Z,52.98
2019-01-13T00:03:45.509Z,52.41
2019-01-13T00:04:53.557Z,52.98
2019-01-13T00:06:01.621Z,52.22
2019-01-13T00:07:09.680Z,52.88
2019-01-13T00:08:17.713Z,53.17
2019-01-13T00:09:25.772Z,53.26
2019-01-13T00:10:33.828Z,53.55
2019-01-13T00:11:41.890Z,53.57
2019-01-13T00:12:49.956Z,54.21
2019-01-13T00:13:58.010Z,56.85
2019-01-13T00:15:06.054Z,55.06
2019-01-13T00:16:14.118Z,56.88
2019-01-13T00:17:22.169Z,54.96
2019-01-13T00:18:30.230Z,54.96
2019-01-13T00:19:38.299Z,54.99
2019-01-13T00:20:46.354Z,54.71
2019-01-13T00:21:54.413Z,55.46
2019-01-13T00:23:02.471Z,55.06
2019-01-13T00:24:10.494Z,54.04
2019-01-13T00:25:18.573Z,55.37
2019-01-13T00:26:26.621Z,55.56
2019-01-13T00:27:34.690Z,55.82
2019-01-13T00:28:42.728Z,55.44
2019-01-13T00:29:50.766Z,54.11
2019-01-13T00:30:58.835Z,54.33
2019-01-13T00:32:06.892Z,54.23
2019-01-13T00:33:14.974Z,57.17
2019-01-13T00:34:23.027Z,54.90
2019-01-13T00:35:31.998Z,54.14
2019-01-13T00:36:39.135Z,54.99
2019-01-13T00:37:47.193Z,55.94
2019-01-13T00:38:55.242Z,56.70
2019-01-13T00:40:03.297Z,55.91
2019-01-13T00:41:11.337Z,57.23
2019-01-13T00:42:19.434Z,56.51
2019-01-13T00:43:27.466Z,55.84
2019-01-13T00:44:35.526Z,54.90
2019-01-13T00:45:43.580Z,54.99
2019-01-13T00:46:51.640Z,56.79
2019-01-13T00:47:59.774Z,54.90
2019-01-13T00:49:07.749Z,55.94
2019-01-13T00:50:15.813Z,56.22
2019-01-13T00:51:23.875Z,55.15
2019-01-13T00:52:31.921Z,54.96
2019-01-13T00:53:39.963Z,54.21
2019-01-13T00:54:48.068Z,54.96
2019-01-13T00:55:56.093Z,55.08
2019-01-13T00:57:04.143Z,54.49
2019-01-13T00:58:12.201Z,54.21
2019-01-13T00:59:20.262Z,54.80
2019-01-13T01:00:28.296Z,55.15
2019-01-13T01:01:36.369Z,54.39
2019-01-13T01:02:44.411Z,54.30
2019-01-13T01:03:52.500Z,53.47
2019-01-13T01:05:00.515Z,54.02
2019-01-13T01:06:08.604Z,54.33
2019-01-13T01:07:16.636Z,56.88
2019-01-13T01:08:24.708Z,55.06
2019-01-13T01:09:32.791Z,55.34
2019-01-13T01:10:40.786Z,54.99
2019-01-13T01:11:48.889Z,54.80
2019-01-13T01:12:57.020Z,55.91
2019-01-13T01:14:04.986Z,55.25
2019-01-13T01:15:13.043Z,53.83
2019-01-13T01:16:21.074Z,54.11
2019-01-13T01:17:29.158Z,53.64
2019-01-13T01:18:37.220Z,52.98
2019-01-13T01:19:45.260Z,55.15
2019-01-13T01:20:53.329Z,54.77
2019-01-13T01:22:01.359Z,54.11
2019-01-13T01:23:09.441Z,53.92
2019-01-13T01:24:17.546Z,53.45
2019-01-13T01:25:25.532Z,53.83
2019-01-13T01:26:33.607Z,54.21
2019-01-13T01:27:41.651Z,53.74
2019-01-13T01:28:49.709Z,52.88
2019-01-13T01:29:57.755Z,52.22
2019-01-13T01:31:05.866Z,51.84
2019-01-13T01:32:13.887Z,51.28
2019-01-13T01:33:25.962Z,51.56
2019-01-13T01:34:29.997Z,52.79
2019-01-13T01:35:38.051Z,55.06
2019-01-13T01:36:46.115Z,54.33
2019-01-13T01:37:54.175Z,53.83
2019-01-13T01:39:02.213Z,53.83
2019-01-13T01:40:10.282Z,53.74
2019-01-13T01:41:18.324Z,53.07
2019-01-13T01:42:26.399Z,52.31
2019-01-13T01:43:34.463Z,52.41
2019-01-13T01:44:42.511Z,52.12
2019-01-13T01:45:50.537Z,52.15
2019-01-13T01:46:58.625Z,52.34
2019-01-13T01:48:06.671Z,54.33
2019-01-13T01:49:14.730Z,54.80
2019-01-13T01:50:22.770Z,53.28
2019-01-13T01:51:30.814Z,53.17
2019-01-13T01:52:38.891Z,53.17
2019-01-13T01:53:46.966Z,52.79
2019-01-13T01:54:55.005Z,53.74
2019-01-13T01:56:03.064Z,53.07
2019-01-13T01:57:11.105Z,52.98
2019-01-13T01:58:19.173Z,53.92
2019-01-13T01:59:27.228Z,53.09
2019-01-13T02:00:40.437Z,52.81
2019-01-13T02:01:43.347Z,53.07
2019-01-13T02:02:51.384Z,53.17
2019-01-13T02:03:59.449Z,54.14
2019-01-13T02:05:07.535Z,54.61
2019-01-13T02:06:15.575Z,53.95
2019-01-13T02:07:23.628Z,53.66
2019-01-13T02:08:31.694Z,53.76
2019-01-13T02:09:39.719Z,52.44
2019-01-13T02:10:47.795Z,52.53
2019-01-13T02:11:55.838Z,52.06
2019-01-13T02:13:03.913Z,51.68
2019-01-13T02:14:11.976Z,53.85
2019-01-13T02:15:20.021Z,53.19
2019-01-13T02:16:28.080Z,53.47
2019-01-13T02:17:36.145Z,53.85
2019-01-13T02:18:44.201Z,54.33
2019-01-13T02:19:52.245Z,55.37
2019-01-13T02:21:00.291Z,53.57
2019-01-13T02:22:08.355Z,53.57
2019-01-13T02:23:16.423Z,52.91
2019-01-13T02:24:24.467Z,52.72
2019-01-13T02:25:32.516Z,53.38
2019-01-13T02:26:40.566Z,55.08
2019-01-13T02:27:48.626Z,57.26
2019-01-13T02:28:56.698Z,54.71
2019-01-13T02:30:04.745Z,55.82
2019-01-13T02:31:12.807Z,53.92
2019-01-13T02:32:20.840Z,54.04
2019-01-13T02:33:28.922Z,52.81
2019-01-13T02:34:36.965Z,53.95
2019-01-13T02:35:45.024Z,52.34
2019-01-13T02:36:53.080Z,51.30
2019-01-13T02:38:01.113Z,51.20
2019-01-13T02:39:09.207Z,52.06
2019-01-13T02:40:17.254Z,51.49
2019-01-13T02:41:25.303Z,51.39
2019-01-13T02:42:33.374Z,50.63
2019-01-13T02:43:41.391Z,50.35
2019-01-13T02:44:49.478Z,49.69
2019-01-13T02:45:57.537Z,50.63
2019-01-13T02:47:05.601Z,51.58
2019-01-13T02:48:13.630Z,51.75
2019-01-13T02:49:21.698Z,50.71
2019-01-13T02:50:29.759Z,50.45
2019-01-13T02:51:37.812Z,50.73
2019-01-13T02:52:45.859Z,49.88
2019-01-13T02:53:53.926Z,50.73
2019-01-13T02:55:01.991Z,51.01
2019-01-13T02:56:10.040Z,51.11
2019-01-13T02:57:18.085Z,50.35
2019-01-13T02:58:26.157Z,51.58
2019-01-13T02:59:34.223Z,52.06
2019-01-13T03:00:42.274Z,51.58
2019-01-13T03:01:50.316Z,51.58
2019-01-13T03:02:58.383Z,51.11
2019-01-13T03:04:06.453Z,51.20
2019-01-13T03:05:14.490Z,51.58
2019-01-13T03:06:22.535Z,51.77
2019-01-13T03:07:30.579Z,51.58
2019-01-13T03:08:38.660Z,51.58
2019-01-13T03:09:46.707Z,51.58
2019-01-13T03:10:54.768Z,52.44
2019-01-13T03:12:02.825Z,51.87
2019-01-13T03:13:10.862Z,51.20
2019-01-13T03:14:18.942Z,51.11
2019-01-13T03:15:26.993Z,50.54
2019-01-13T03:16:35.064Z,50.82
2019-01-13T03:17:43.189Z,50.63
2019-01-13T03:18:51.145Z,51.49
2019-01-13T03:19:59.211Z,51.58
2019-01-13T03:21:07.271Z,52.34
2019-01-13T03:22:15.341Z,51.49
2019-01-13T03:23:23.407Z,51.11
2019-01-13T03:24:31.434Z,51.20
2019-01-13T03:25:39.500Z,51.49
2019-01-13T03:26:47.561Z,51.20
2019-01-13T03:27:55.633Z,51.30
2019-01-13T03:29:03.673Z,50.82
2019-01-13T03:30:11.729Z,50.92
2019-01-13T03:31:19.797Z,51.39
2019-01-13T03:32:27.953Z,50.92
2019-01-13T03:33:35.906Z,52.15
2019-01-13T03:34:43.968Z,51.58
2019-01-13T03:35:52.010Z,51.01
2019-01-13T03:37:00.056Z,51.58
2019-01-13T03:38:08.133Z,51.30
2019-01-13T03:39:16.203Z,52.34
2019-01-13T03:40:24.247Z,51.77
2019-01-13T03:41:32.299Z,51.20
2019-01-13T03:42:40.361Z,51.20
2019-01-13T03:43:48.411Z,51.01
2019-01-13T03:44:56.476Z,51.87
2019-01-13T03:46:04.516Z,53.00
2019-01-13T03:47:12.589Z,53.19
2019-01-13T03:48:20.624Z,53.19
2019-01-13T03:49:28.699Z,52.53
2019-01-13T03:50:36.748Z,53.19
2019-01-13T03:51:44.806Z,53.00
2019-01-13T03:52:53.454Z,53.00
2019-01-13T03:54:00.889Z,52.62
2019-01-13T03:55:08.982Z,53.76
2019-01-13T03:56:17.038Z,54.14
2019-01-13T03:57:25.097Z,53.95
2019-01-13T03:58:33.149Z,53.85
2019-01-13T03:59:41.188Z,53.66
2019-01-13T04:00:49.267Z,54.04
2019-01-13T04:01:57.324Z,53.76
2019-01-13T04:03:05.389Z,53.85
2019-01-13T04:04:13.418Z,53.38
2019-01-13T04:05:21.473Z,53.00
2019-01-13T04:06:29.539Z,52.44
2019-01-13T04:07:37.595Z,53.19
2019-01-13T04:08:45.657Z,52.91
2019-01-13T04:09:53.707Z,53.00
2019-01-13T04:11:01.765Z,53.00
2019-01-13T04:12:09.828Z,54.23
2019-01-13T04:13:17.880Z,55.18
2019-01-13T04:14:25.925Z,54.80
2019-01-13T04:15:34.003Z,54.99
2019-01-13T04:16:42.054Z,55.08
2019-01-13T04:17:50.108Z,54.04
2019-01-13T04:18:58.150Z,54.04
2019-01-13T04:20:06.212Z,53.57
2019-01-13T04:21:14.286Z,54.99
2019-01-13T04:22:22.326Z,54.42
2019-01-13T04:23:30.392Z,54.71
2019-01-13T04:24:38.439Z,54.90
2019-01-13T04:25:46.507Z,54.99
2019-01-13T04:26:54.568Z,54.80
2019-01-13T04:28:02.610Z,55.18
2019-01-13T04:29:10.648Z,55.56
2019-01-13T04:30:18.718Z,55.84
2019-01-13T04:31:27.098Z,57.35
2019-01-13T04:32:34.844Z,57.17
2019-01-13T04:33:42.896Z,56.32
2019-01-13T04:34:50.926Z,55.84
2019-01-13T04:35:59.014Z,58.40
2019-01-13T04:37:07.064Z,58.59
2019-01-13T04:38:15.122Z,57.45
2019-01-13T04:39:23.189Z,58.30
2019-01-13T04:40:31.224Z,57.83
2019-01-13T04:41:39.290Z,56.13
2019-01-13T04:42:47.363Z,55.46
2019-01-13T04:43:55.407Z,55.56
2019-01-13T04:45:03.479Z,56.22
2019-01-13T04:46:11.506Z,56.32
2019-01-13T04:47:19.585Z,56.88
2019-01-13T04:48:27.636Z,54.33
2019-01-13T04:49:35.701Z,55.18
2019-01-13T04:50:43.761Z,55.08
2019-01-13T04:51:51.802Z,54.61
2019-01-13T04:52:59.852Z,54.71
2019-01-13T04:54:07.907Z,53.76
2019-01-13T04:55:15.975Z,54.33
2019-01-13T04:56:24.022Z,53.47
2019-01-13T04:57:32.100Z,54.23
2019-01-13T04:58:40.142Z,53.66
2019-01-13T04:59:48.194Z,53.28
2019-01-13T05:00:56.257Z,53.38
2019-01-13T05:02:04.326Z,53.95
2019-01-13T05:03:12.382Z,53.66
2019-01-13T05:04:20.421Z,54.52
2019-01-13T05:05:28.477Z,53.95
2019-01-13T05:06:36.548Z,54.04
2019-01-13T05:07:44.586Z,53.85
2019-01-13T05:08:52.668Z,53.47
2019-01-13T05:10:00.682Z,53.00
2019-01-13T05:11:08.771Z,53.09
2019-01-13T05:12:16.814Z,53.00
2019-01-13T05:13:24.893Z,54.04
2019-01-13T05:14:32.929Z,53.19
2019-01-13T05:15:40.962Z,53.95
2019-01-13T05:16:49.100Z,53.09
2019-01-13T05:17:57.118Z,52.81
2019-01-13T05:19:05.181Z,52.53
2019-01-13T05:20:13.230Z,53.00
2019-01-13T05:21:21.267Z,53.85
2019-01-13T05:22:29.342Z,54.14
2019-01-13T05:23:37.391Z,52.34
2019-01-13T05:24:45.451Z,53.09
2019-01-13T05:25:53.510Z,51.68
2019-01-13T05:27:01.581Z,52.06
2019-01-13T05:28:09.622Z,52.34
2019-01-13T05:29:17.686Z,53.95
2019-01-13T05:30:25.730Z,52.72
2019-01-13T05:31:33.787Z,51.96
2019-01-13T05:32:41.849Z,52.15
2019-01-13T05:33:49.900Z,52.15
2019-01-13T05:34:57.986Z,52.25
2019-01-13T05:36:06.000Z,51.96
2019-01-13T05:37:14.067Z,51.87
2019-01-13T05:38:22.127Z,53.09
2019-01-13T05:39:30.199Z,51.58
2019-01-13T05:40:38.241Z,51.49
2019-01-13T05:41:46.296Z,53.85
2019-01-13T05:42:54.354Z,54.99
2019-01-13T05:44:02.425Z,53.00
2019-01-13T05:45:10.460Z,53.09
2019-01-13T05:46:18.528Z,54.04
2019-01-13T05:47:26.584Z,53.57
2019-01-13T05:48:34.641Z,53.95
2019-01-13T05:49:42.725Z,53.85
2019-01-13T05:50:50.727Z,53.38
2019-01-13T05:51:58.812Z,53.95
2019-01-13T05:53:06.855Z,53.76
2019-01-13T05:54:14.910Z,53.95
2019-01-13T05:55:22.980Z,54.42
2019-01-13T05:56:31.348Z,54.52
2019-01-13T05:57:39.097Z,54.33
2019-01-13T05:58:47.143Z,53.09
2019-01-13T05:59:55.221Z,53.00
2019-01-13T06:01:03.266Z,52.91
2019-01-13T06:02:11.285Z,53.19
2019-01-13T06:03:19.386Z,52.06
2019-01-13T06:04:27.428Z,51.96
2019-01-13T06:05:35.493Z,51.58
2019-01-13T06:06:43.564Z,51.68
2019-01-13T06:07:51.607Z,50.54
2019-01-13T06:08:59.667Z,52.34
2019-01-13T06:10:07.710Z,51.49
2019-01-13T06:11:15.972Z,51.96
2019-01-13T06:12:23.836Z,51.96
2019-01-13T06:13:31.918Z,51.87
2019-01-13T06:14:39.937Z,52.06
2019-01-13T06:15:48.009Z,51.87
2019-01-13T06:16:56.054Z,51.58
2019-01-13T06:18:04.117Z,51.11
2019-01-13T06:19:12.174Z,52.15
2019-01-13T06:20:20.276Z,52.15
2019-01-13T06:21:28.285Z,52.91
2019-01-13T06:22:36.416Z,53.09
2019-01-13T06:23:44.401Z,53.00
2019-01-13T06:24:52.790Z,53.00
2019-01-13T06:26:00.482Z,52.25
2019-01-13T06:27:08.582Z,52.06
2019-01-13T06:28:16.622Z,52.15
2019-01-13T06:29:24.691Z,51.96
2019-01-13T06:30:33.287Z,52.06
2019-01-13T06:31:40.769Z,51.96
2019-01-13T06:32:48.864Z,51.87
2019-01-13T06:33:56.925Z,52.72
2019-01-13T06:35:04.968Z,52.15
2019-01-13T06:36:13.037Z,53.00
2019-01-13T06:37:21.084Z,52.72
2019-01-13T06:38:29.157Z,52.72
2019-01-13T06:39:37.191Z,52.72
2019-01-13T06:40:45.262Z,52.34
2019-01-13T06:41:53.320Z,52.15
2019-01-13T06:43:01.350Z,51.96
2019-01-13T06:44:09.424Z,51.68
2019-01-13T06:45:17.465Z,52.53
2019-01-13T06:46:25.514Z,51.96
2019-01-13T06:47:33.601Z,51.11
2019-01-13T06:48:41.973Z,50.82
2019-01-13T06:49:50.128Z,51.77
2019-01-13T06:50:57.740Z,50.54
2019-01-13T06:52:06.332Z,50.54
2019-01-13T06:53:14.133Z,49.50
2019-01-13T06:54:22.015Z,49.41
2019-01-13T06:55:30.242Z,49.31
2019-01-13T06:56:38.375Z,49.50
2019-01-13T06:57:46.590Z,49.31
2019-01-13T06:58:54.678Z,49.50
2019-01-13T07:00:02.879Z,50.26
2019-01-13T07:01:10.750Z,49.50
2019-01-13T07:02:18.508Z,49.31
2019-01-13T07:03:26.390Z,49.88
2019-01-13T07:04:34.790Z,50.82
2019-01-13T07:05:42.688Z,50.73
2019-01-13T07:06:51.036Z,51.39
2019-01-13T07:07:58.789Z,51.58
2019-01-13T07:09:07.035Z,51.11
2019-01-13T07:10:15.037Z,51.01
2019-01-13T07:11:22.815Z,50.92
2019-01-13T07:12:31.090Z,50.63
2019-01-13T07:13:39.108Z,50.82
2019-01-13T07:14:47.110Z,50.82
2019-01-13T07:15:55.534Z,50.82
2019-01-13T07:17:03.536Z,50.63
2019-01-13T07:18:11.092Z,50.35
2019-01-13T07:19:19.567Z,50.82
2019-01-13T07:20:27.393Z,50.73
2019-01-13T07:21:35.728Z,50.35
2019-01-13T07:22:43.358Z,50.35
2019-01-13T07:23:51.392Z,49.69
2019-01-13T07:24:59.467Z,49.12
2019-01-13T07:26:07.541Z,49.03
2019-01-13T07:27:15.579Z,48.74
2019-01-13T07:28:23.640Z,49.31
2019-01-13T07:29:32.237Z,48.65
2019-01-13T07:30:40.332Z,49.41
2019-01-13T07:31:49.438Z,49.03
2019-01-13T07:32:55.953Z,49.12
2019-01-13T07:34:03.916Z,49.03
2019-01-13T07:35:12.063Z,49.03
2019-01-13T07:36:20.046Z,49.03
2019-01-13T07:37:28.122Z,49.60
2019-01-13T07:38:36.387Z,50.16
2019-01-13T07:39:44.244Z,50.16
2019-01-13T07:40:52.408Z,49.41
2019-01-13T07:42:00.385Z,49.31
2019-01-13T07:43:08.388Z,48.93
2019-01-13T07:44:17.530Z,49.31
2019-01-13T07:45:24.527Z,49.33
2019-01-13T07:46:33.013Z,49.90
2019-01-13T07:47:40.600Z,50.35
2019-01-13T07:48:48.680Z,51.04
2019-01-13T07:49:56.735Z,51.61
2019-01-13T07:51:05.131Z,51.61
2019-01-13T07:52:12.852Z,50.82
2019-01-13T07:53:20.888Z,51.32
2019-01-13T07:54:29.219Z,52.08
2019-01-13T07:55:37.011Z,50.95
2019-01-13T07:56:45.067Z,52.08
2019-01-13T07:57:53.128Z,51.99
2019-01-13T07:59:01.174Z,51.87
2019-01-13T08:00:09.264Z,51.23
2019-01-13T08:01:17.470Z,52.56
2019-01-13T08:02:25.359Z,53.13
2019-01-13T08:03:33.412Z,53.22
2019-01-13T08:04:41.621Z,53.69
2019-01-13T08:05:49.576Z,53.97
2019-01-13T08:06:57.603Z,55.49
2019-01-13T08:08:05.890Z,56.91
2019-01-13T08:09:13.708Z,57.48
2019-01-13T08:10:22.097Z,57.20
2019-01-13T08:11:29.810Z,56.91
2019-01-13T08:12:38.357Z,56.44
2019-01-13T08:13:45.920Z,56.63
2019-01-13T08:14:54.232Z,56.44
2019-01-13T08:16:02.271Z,58.05
2019-01-13T08:17:10.477Z,57.67
2019-01-13T08:18:18.355Z,58.52
2019-01-13T08:19:26.231Z,59.66
2019-01-13T08:20:34.587Z,57.64
2019-01-13T08:21:42.363Z,58.43
2019-01-13T08:22:50.381Z,58.43
2019-01-13T08:23:58.432Z,59.28
2019-01-13T08:25:06.512Z,59.47
2019-01-13T08:26:14.576Z,60.89
2019-01-13T08:27:22.624Z,60.99
2019-01-13T08:28:30.659Z,61.08
2019-01-13T08:29:38.749Z,60.80
2019-01-13T08:30:46.791Z,60.51
2019-01-13T08:31:55.050Z,61.46
2019-01-13T08:33:03.226Z,60.03
2019-01-13T08:34:10.941Z,60.70
2019-01-13T08:35:19.366Z,61.36
2019-01-13T08:36:27.091Z,61.36
2019-01-13T08:37:35.135Z,61.55
2019-01-13T08:38:43.198Z,62.12
2019-01-13T08:39:51.254Z,60.99
2019-01-13T08:40:59.764Z,60.99
2019-01-13T08:42:10.941Z,61.55
2019-01-13T08:43:15.426Z,61.55
2019-01-13T08:44:23.484Z,62.12
2019-01-13T08:45:31.539Z,61.46
2019-01-13T08:46:39.606Z,60.22
2019-01-13T08:47:47.665Z,62.02
2019-01-13T08:48:55.716Z,63.26
2019-01-13T08:50:03.778Z,62.12
2019-01-13T08:51:11.837Z,64.39
2019-01-13T08:52:20.171Z,66.00
2019-01-13T08:53:27.932Z,64.77
2019-01-13T08:54:36.033Z,65.15
2019-01-13T08:55:44.049Z,65.72
2019-01-13T08:56:52.198Z,64.49
2019-01-13T08:58:00.180Z,65.25
2019-01-13T08:59:08.238Z,65.81
2019-01-13T09:00:16.291Z,66.57
2019-01-13T09:01:24.996Z,68.65
2019-01-13T09:02:32.605Z,66.76
2019-01-13T09:03:40.494Z,67.61
2019-01-13T09:04:48.800Z,69.03
2019-01-13T09:05:56.588Z,67.24
2019-01-13T09:07:04.665Z,68.65
2019-01-13T09:08:12.702Z,70.45
2019-01-13T09:09:20.721Z,69.70
2019-01-13T09:10:28.808Z,67.14
2019-01-13T09:11:36.876Z,67.80
2019-01-13T09:12:44.917Z,66.86
2019-01-13T09:13:52.988Z,67.80
2019-01-13T09:15:01.016Z,68.37
2019-01-13T09:16:09.104Z,67.99
2019-01-13T09:17:17.151Z,68.18
2019-01-13T09:18:25.207Z,69.13
2019-01-13T09:19:33.276Z,69.22
2019-01-13T09:20:41.329Z,69.79
2019-01-13T09:21:49.391Z,69.32
2019-01-13T09:22:57.464Z,70.83
2019-01-13T09:24:05.521Z,69.60
2019-01-13T09:25:13.545Z,68.46
2019-01-13T09:26:21.614Z,68.65
2019-01-13T09:27:29.700Z,69.03
2019-01-13T09:28:37.725Z,68.94
2019-01-13T09:29:45.810Z,69.32
2019-01-13T09:30:53.824Z,71.50
2019-01-13T09:32:01.902Z,69.22
2019-01-13T09:33:09.951Z,70.17
2019-01-13T09:34:18.014Z,72.25
2019-01-13T09:35:26.066Z,71.21
2019-01-13T09:36:34.121Z,73.20
2019-01-13T09:37:42.189Z,72.25
2019-01-13T09:38:50.251Z,72.34
2019-01-13T09:39:58.303Z,71.97
2019-01-13T09:41:06.365Z,72.16
2019-01-13T09:42:14.415Z,69.22
2019-01-13T09:43:22.487Z,69.13
2019-01-13T09:44:30.528Z,69.98
2019-01-13T09:45:38.604Z,69.32
2019-01-13T09:46:46.639Z,68.37
2019-01-13T09:47:54.759Z,68.65
2019-01-13T09:49:02.786Z,69.89
2019-01-13T09:50:10.802Z,69.41
2019-01-13T09:51:18.864Z,70.26
2019-01-13T09:52:26.939Z,70.83
2019-01-13T09:53:35.005Z,69.45
2019-01-13T09:54:43.065Z,73.24
2019-01-13T09:55:51.090Z,73.14
2019-01-13T09:56:59.171Z,74.66
2019-01-13T09:58:07.232Z,75.42
2019-01-13T09:59:15.301Z,73.90
2019-01-13T10:00:23.341Z,75.04
2019-01-13T10:01:31.393Z,73.77
2019-01-13T10:02:46.423Z,70.87
2019-01-13T10:03:47.508Z,73.14
2019-01-13T10:04:55.577Z,73.24
2019-01-13T10:06:03.645Z,74.52
2019-01-13T10:07:11.760Z,71.59
2019-01-13T10:08:19.772Z,71.78
2019-01-13T10:09:27.818Z,70.17
2019-01-13T10:10:35.867Z,70.83
2019-01-13T10:11:43.930Z,70.17
2019-01-13T10:12:51.978Z,70.07
2019-01-13T10:14:00.050Z,71.12
2019-01-13T10:15:08.102Z,71.31
2019-01-13T10:16:16.151Z,71.50
2019-01-13T10:17:24.229Z,71.21
2019-01-13T10:18:32.325Z,71.50
2019-01-13T10:19:40.336Z,72.06
2019-01-13T10:20:48.437Z,71.88
2019-01-13T10:21:56.448Z,71.88
2019-01-13T10:23:04.513Z,69.32
2019-01-13T10:24:12.581Z,71.81
2019-01-13T10:25:21.106Z,73.33
2019-01-13T10:26:28.684Z,75.70
2019-01-13T10:27:36.743Z,75.98
2019-01-13T10:28:44.805Z,73.24
2019-01-13T10:29:52.850Z,73.90
2019-01-13T10:31:03.208Z,72.77
2019-01-13T10:32:08.974Z,71.62
2019-01-13T10:33:17.028Z,75.98
2019-01-13T10:34:25.086Z,73.14
2019-01-13T10:35:33.140Z,77.40
2019-01-13T10:36:41.185Z,73.61
2019-01-13T10:37:49.261Z,77.59
2019-01-13T10:38:57.334Z,79.30
2019-01-13T10:40:05.383Z,76.36
2019-01-13T10:41:13.431Z,78.54
2019-01-13T10:42:21.497Z,80.06
2019-01-13T10:43:29.544Z,79.68
2019-01-13T10:44:37.622Z,78.92
2019-01-13T10:45:45.664Z,75.98
2019-01-13T10:46:53.723Z,77.97
2019-01-13T10:48:01.781Z,78.92
2019-01-13T10:49:09.849Z,76.36
2019-01-13T10:50:17.907Z,78.35
2019-01-13T10:51:25.958Z,82.71
2019-01-13T10:52:34.031Z,81.86
2019-01-13T10:53:42.086Z,80.82
2019-01-13T10:54:50.124Z,81.57
2019-01-13T10:55:58.190Z,82.62
2019-01-13T10:57:06.240Z,80.53
2019-01-13T10:58:14.314Z,78.54
2019-01-13T10:59:22.375Z,79.02
2019-01-13T11:00:30.412Z,80.91
2019-01-13T11:01:38.489Z,81.29
2019-01-13T11:02:46.549Z,80.53
2019-01-13T11:03:54.605Z,80.25
2019-01-13T11:05:02.660Z,77.78
2019-01-13T11:06:10.690Z,77.78
2019-01-13T11:07:18.774Z,77.69
2019-01-13T11:08:26.830Z,76.42
2019-01-13T11:09:34.912Z,81.29
2019-01-13T11:10:42.943Z,79.45
2019-01-13T11:11:50.982Z,76.80
2019-01-13T11:12:59.070Z,76.70
2019-01-13T11:14:07.130Z,78.13
2019-01-13T11:15:21.396Z,79.55
2019-01-13T11:16:23.242Z,76.51
2019-01-13T11:17:31.294Z,75.28
2019-01-13T11:18:39.366Z,77.94
2019-01-13T11:19:47.425Z,78.41
2019-01-13T11:20:55.479Z,79.02
2019-01-13T11:22:03.531Z,76.70
2019-01-13T11:23:11.594Z,78.88
2019-01-13T11:24:19.638Z,78.03
2019-01-13T11:25:27.708Z,77.75
2019-01-13T11:26:35.753Z,77.84
2019-01-13T11:27:43.819Z,75.38
2019-01-13T11:28:51.887Z,76.42
2019-01-13T11:29:59.938Z,75.19
2019-01-13T11:31:08.007Z,74.33
2019-01-13T11:32:16.069Z,71.88
2019-01-13T11:33:24.136Z,72.86
2019-01-13T11:34:32.169Z,72.29
2019-01-13T11:35:40.290Z,73.99
2019-01-13T11:36:48.297Z,73.05
2019-01-13T11:37:56.346Z,77.31
2019-01-13T11:39:04.405Z,78.16
2019-01-13T11:40:12.465Z,75.51
2019-01-13T11:41:20.515Z,73.24
2019-01-13T11:42:28.572Z,79.96
2019-01-13T11:43:36.634Z,80.06
2019-01-13T11:44:44.688Z,77.22
2019-01-13T11:45:52.760Z,79.30
2019-01-13T11:47:00.802Z,76.17
2019-01-13T11:48:08.867Z,78.45
2019-01-13T11:49:16.926Z,77.22
2019-01-13T11:50:24.996Z,76.74
2019-01-13T11:51:33.047Z,77.40
2019-01-13T11:52:41.088Z,77.03
2019-01-13T11:53:49.171Z,77.97
2019-01-13T11:54:57.222Z,75.42
2019-01-13T11:56:05.279Z,76.84
2019-01-13T11:57:13.342Z,76.46
2019-01-13T11:58:21.375Z,76.65
2019-01-13T11:59:29.457Z,77.31
2019-01-13T12:00:37.499Z,77.03
2019-01-13T12:01:45.557Z,77.97
2019-01-13T12:02:53.622Z,75.98
2019-01-13T12:04:01.662Z,76.27
2019-01-13T12:05:09.733Z,77.69
2019-01-13T12:06:17.814Z,76.74
2019-01-13T12:07:25.854Z,76.55
2019-01-13T12:08:33.917Z,75.79
2019-01-13T12:09:41.966Z,79.68
2019-01-13T12:10:50.027Z,79.21
2019-01-13T12:11:58.092Z,78.26
2019-01-13T12:13:06.144Z,82.43
2019-01-13T12:14:14.215Z,79.21
2019-01-13T12:15:22.259Z,80.25
2019-01-13T12:16:30.338Z,79.21
2019-01-13T12:17:38.389Z,78.26
2019-01-13T12:18:46.436Z,78.45
2019-01-13T12:19:54.502Z,80.91
2019-01-13T12:21:02.556Z,80.44
2019-01-13T12:22:10.598Z,80.63
2019-01-13T12:23:18.684Z,80.06
2019-01-13T12:24:26.730Z,78.26
2019-01-13T12:25:34.787Z,81.01
2019-01-13T12:26:42.893Z,78.64
2019-01-13T12:27:50.879Z,81.57
2019-01-13T12:28:59.011Z,80.63
2019-01-13T12:30:07.022Z,80.63
2019-01-13T12:31:15.103Z,80.82
2019-01-13T12:32:23.141Z,77.50
2019-01-13T12:33:31.186Z,82.09
2019-01-13T12:34:39.271Z,81.95
2019-01-13T12:35:47.317Z,83.61
2019-01-13T12:36:55.388Z,79.21
2019-01-13T12:38:03.429Z,79.53
2019-01-13T12:39:11.488Z,77.88
2019-01-13T12:40:19.549Z,77.88
2019-01-13T12:41:27.617Z,79.21
2019-01-13T12:42:35.679Z,80.72
2019-01-13T12:43:43.741Z,80.53
2019-01-13T12:44:51.787Z,78.35
2019-01-13T12:45:59.831Z,81.20
2019-01-13T12:47:07.908Z,79.39
2019-01-13T12:48:15.971Z,81.20
2019-01-13T12:49:24.024Z,81.76
2019-01-13T12:50:32.089Z,79.21
2019-01-13T12:51:40.162Z,77.59
2019-01-13T12:52:48.576Z,77.69
2019-01-13T12:53:56.259Z,79.25
2019-01-13T12:55:04.321Z,80.57
2019-01-13T12:56:12.380Z,79.53
2019-01-13T12:57:20.431Z,81.33
2019-01-13T12:58:28.507Z,78.49
2019-01-13T12:59:36.564Z,78.67
2019-01-13T13:00:44.617Z,79.21
2019-01-13T13:01:52.679Z,78.30
2019-01-13T13:03:00.727Z,79.63
2019-01-13T13:04:08.789Z,77.59
2019-01-13T13:05:16.842Z,76.65
2019-01-13T13:06:24.918Z,75.55
2019-01-13T13:07:32.967Z,76.74
2019-01-13T13:08:41.009Z,75.84
2019-01-13T13:09:49.504Z,77.50
2019-01-13T13:10:57.154Z,78.02
2019-01-13T13:12:05.210Z,77.64
2019-01-13T13:13:13.263Z,77.35
2019-01-13T13:14:21.288Z,78.30
2019-01-13T13:15:29.376Z,77.45
2019-01-13T13:16:37.442Z,77.64
2019-01-13T13:17:45.515Z,75.60
2019-01-13T13:18:53.542Z,74.85
2019-01-13T13:20:01.623Z,73.52
2019-01-13T13:21:09.681Z,72.86
2019-01-13T13:22:17.719Z,73.52
2019-01-13T13:23:25.795Z,72.67
2019-01-13T13:24:33.843Z,73.05
2019-01-13T13:25:41.901Z,73.90
2019-01-13T13:26:49.968Z,73.99
2019-01-13T13:27:58.020Z,71.91
2019-01-13T13:29:06.088Z,71.62
2019-01-13T13:30:14.136Z,72.19
2019-01-13T13:31:22.198Z,70.87
2019-01-13T13:32:30.244Z,70.87
2019-01-13T13:33:38.793Z,70.87
2019-01-13T13:34:47.131Z,70.20
2019-01-13T13:35:54.437Z,69.64
2019-01-13T13:37:02.513Z,72.80
2019-01-13T13:38:10.556Z,73.14
2019-01-13T13:39:18.617Z,73.65
2019-01-13T13:40:26.662Z,73.80
2019-01-13T13:41:34.718Z,73.24
2019-01-13T13:42:42.785Z,73.27
2019-01-13T13:43:50.826Z,72.67
2019-01-13T13:44:59.150Z,72.57
2019-01-13T13:46:07.324Z,73.94
2019-01-13T13:47:15.630Z,72.33
2019-01-13T13:48:23.384Z,71.95
2019-01-13T13:49:31.112Z,71.76
2019-01-13T13:50:39.180Z,72.77
2019-01-13T13:51:47.248Z,72.80
2019-01-13T13:52:55.318Z,72.80
2019-01-13T13:54:03.370Z,73.08
2019-01-13T13:55:11.709Z,71.28
2019-01-13T13:56:19.502Z,71.95
2019-01-13T13:57:27.649Z,73.08
2019-01-13T13:58:35.600Z,73.27
2019-01-13T13:59:43.654Z,71.38
2019-01-13T14:00:51.732Z,71.76
2019-01-13T14:01:59.779Z,71.19
2019-01-13T14:03:07.847Z,71.15
2019-01-13T14:04:15.895Z,68.63
2019-01-13T14:05:23.967Z,69.26
2019-01-13T14:06:32.027Z,67.40
2019-01-13T14:07:40.077Z,66.99
2019-01-13T14:08:48.153Z,68.63
2019-01-13T14:09:56.196Z,67.30
2019-01-13T14:11:04.266Z,65.47
2019-01-13T14:12:12.314Z,66.89
2019-01-13T14:13:20.357Z,68.35
2019-01-13T14:14:28.414Z,64.81
2019-01-13T14:15:36.477Z,64.90
2019-01-13T14:16:44.544Z,64.61
2019-01-13T14:17:52.585Z,66.16
2019-01-13T14:19:00.660Z,63.95
2019-01-13T14:20:08.727Z,64.04
2019-01-13T14:21:16.787Z,63.10
2019-01-13T14:22:24.828Z,63.10
2019-01-13T14:23:32.918Z,63.39
2019-01-13T14:24:40.937Z,62.72
2019-01-13T14:25:49.007Z,63.10
2019-01-13T14:26:57.064Z,62.91
2019-01-13T14:28:05.112Z,62.82
2019-01-13T14:29:13.255Z,61.68
2019-01-13T14:30:21.241Z,61.40
2019-01-13T14:31:29.308Z,61.21
2019-01-13T14:32:37.371Z,62.62
2019-01-13T14:33:45.424Z,63.57
2019-01-13T14:34:53.476Z,61.21
2019-01-13T14:36:01.555Z,60.64